sensor_id;sensor_type;location;lat;lon;timestamp;P1;durP1;ratioP1;P2;durP2;ratioP2
66972;SDS011;53902;51.466;-2.586;2022-07-29T00:00:19;8.00;;;3.00;;
66972;SDS011;53902;51.466;-2.586;2022-07-29T00:02:44;6.32;;;2.97;;
66972;SDS011;53902;51.466;-2.586;2022-07-29T00:05:09;6.63;;;2.78;;
66972;SDS011;53902;51.466;-2.586;2022-07-29T00:07:38;6.43;;;3.03;;
66972;SDS011;53902;51.466;-2.586;2022-07-29T00:10:04;7.03;;;3.25;;
66972;SDS011;53902;51.466;-2.586;2022-07-29T00:12:30;9.60;;;3.42;;
66972;SDS011;53902;51.466;-2.586;2022-07-29T00:14:55;6.07;;;3.60;;
66972;SDS011;53902;51.466;-2.586;2022-07-29T00:17:22;5.50;;;3.10;;
66972;SDS011;53902;51.466;-2.586;2022-07-29T00:19:48;6.97;;;3.17;;
66972;SDS011;53902;51.466;-2.586;2022-07-29T00:22:13;5.10;;;2.90;;
66972;SDS011;53902;51.466;-2.586;2022-07-29T00:24:38;3.28;;;2.50;;
66972;SDS011;53902;51.466;-2.586;2022-07-29T00:27:04;5.50;;;2.83;;
66972;SDS011;53902;51.466;-2.586;2022-07-29T00:29:29;4.70;;;2.88;;
66972;SDS011;53902;51.466;-2.586;2022-07-29T00:31:55;6.05;;;2.95;;
66972;SDS011;53902;51.466;-2.586;2022-07-29T00:34:23;7.03;;;2.97;;
66972;SDS011;53902;51.466;-2.586;2022-07-29T00:37:07;5.63;;;3.03;;
66972;SDS011;53902;51.466;-2.586;2022-07-29T00:39:39;5.80;;;3.00;;
66972;SDS011;53902;51.466;-2.586;2022-07-29T00:42:05;4.50;;;2.83;;
66972;SDS011;53902;51.466;-2.586;2022-07-29T00:44:35;4.47;;;2.70;;
66972;SDS011;53902;51.466;-2.586;2022-07-29T00:47:03;10.75;;;3.50;;
66972;SDS011;53902;51.466;-2.586;2022-07-29T00:49:29;7.80;;;3.20;;
66972;SDS011;53902;51.466;-2.586;2022-07-29T00:51:54;4.80;;;2.93;;
66972;SDS011;53902;51.466;-2.586;2022-07-29T00:54:22;5.97;;;2.85;;
66972;SDS011;53902;51.466;-2.586;2022-07-29T00:56:48;8.57;;;3.25;;
66972;SDS011;53902;51.466;-2.586;2022-07-29T00:59:14;4.43;;;3.00;;
66972;SDS011;53902;51.466;-2.586;2022-07-29T01:01:39;5.23;;;3.87;;
66972;SDS011;53902;51.466;-2.586;2022-07-29T01:04:07;5.65;;;3.08;;
66972;SDS011;53902;51.466;-2.586;2022-07-29T01:06:33;4.05;;;2.75;;
66972;SDS011;53902;51.466;-2.586;2022-07-29T01:09:00;9.10;;;2.90;;
66972;SDS011;53902;51.466;-2.586;2022-07-29T01:11:33;10.57;;;3.40;;
66972;SDS011;53902;51.466;-2.586;2022-07-29T01:13:59;5.32;;;3.33;;
66972;SDS011;53902;51.466;-2.586;2022-07-29T01:16:30;4.47;;;2.88;;
66972;SDS011;53902;51.466;-2.586;2022-07-29T01:19:00;7.45;;;3.05;;
66972;SDS011;53902;51.466;-2.586;2022-07-29T01:26:58;9.15;;;3.50;;
66972;SDS011;53902;51.466;-2.586;2022-07-29T01:32:01;6.95;;;3.25;;
66972;SDS011;53902;51.466;-2.586;2022-07-29T01:34:36;5.75;;;3.38;;
66972;SDS011;53902;51.466;-2.586;2022-07-29T01:39:36;4.88;;;3.03;;
66972;SDS011;53902;51.466;-2.586;2022-07-29T01:42:15;7.15;;;2.85;;
66972;SDS011;53902;51.466;-2.586;2022-07-29T01:45:23;5.25;;;3.30;;
66972;SDS011;53902;51.466;-2.586;2022-07-29T01:47:46;5.05;;;3.25;;
66972;SDS011;53902;51.466;-2.586;2022-07-29T01:50:36;6.63;;;3.10;;
66972;SDS011;53902;51.466;-2.586;2022-07-29T01:53:09;4.18;;;2.90;;
66972;SDS011;53902;51.466;-2.586;2022-07-29T01:55:45;6.13;;;3.25;;
66972;SDS011;53902;51.466;-2.586;2022-07-29T01:58:11;7.32;;;3.30;;
66972;SDS011;53902;51.466;-2.586;2022-07-29T02:00:37;7.82;;;3.22;;
66972;SDS011;53902;51.466;-2.586;2022-07-29T02:03:05;6.85;;;3.60;;
66972;SDS011;53902;51.466;-2.586;2022-07-29T02:05:34;6.10;;;2.95;;
66972;SDS011;53902;51.466;-2.586;2022-07-29T02:08:00;5.95;;;3.25;;
66972;SDS011;53902;51.466;-2.586;2022-07-29T02:10:30;7.43;;;3.45;;
66972;SDS011;53902;51.466;-2.586;2022-07-29T02:13:02;3.70;;;3.30;;
66972;SDS011;53902;51.466;-2.586;2022-07-29T02:15:29;5.10;;;3.50;;
66972;SDS011;53902;51.466;-2.586;2022-07-29T02:18:06;5.78;;;3.38;;
66972;SDS011;53902;51.466;-2.586;2022-07-29T02:20:37;5.65;;;2.97;;
66972;SDS011;53902;51.466;-2.586;2022-07-29T02:23:03;7.90;;;3.40;;
66972;SDS011;53902;51.466;-2.586;2022-07-29T02:25:29;4.20;;;3.10;;
66972;SDS011;53902;51.466;-2.586;2022-07-29T02:27:55;5.75;;;3.40;;
66972;SDS011;53902;51.466;-2.586;2022-07-29T02:30:25;6.00;;;3.30;;
66972;SDS011;53902;51.466;-2.586;2022-07-29T02:32:52;6.10;;;3.15;;
66972;SDS011;53902;51.466;-2.586;2022-07-29T02:35:18;5.65;;;3.30;;
66972;SDS011;53902;51.466;-2.586;2022-07-29T02:37:45;9.60;;;3.40;;
66972;SDS011;53902;51.466;-2.586;2022-07-29T02:40:33;6.55;;;3.50;;
66972;SDS011;53902;51.466;-2.586;2022-07-29T02:43:02;9.95;;;3.67;;
66972;SDS011;53902;51.466;-2.586;2022-07-29T02:45:28;6.68;;;3.35;;
66972;SDS011;53902;51.466;-2.586;2022-07-29T02:47:54;5.75;;;3.30;;
66972;SDS011;53902;51.466;-2.586;2022-07-29T02:50:22;6.47;;;3.33;;
66972;SDS011;53902;51.466;-2.586;2022-07-29T02:53:05;5.55;;;3.60;;
66972;SDS011;53902;51.466;-2.586;2022-07-29T02:55:43;6.22;;;3.28;;
66972;SDS011;53902;51.466;-2.586;2022-07-29T02:58:24;7.65;;;3.78;;
66972;SDS011;53902;51.466;-2.586;2022-07-29T03:01:10;6.45;;;3.63;;
66972;SDS011;53902;51.466;-2.586;2022-07-29T03:03:45;6.63;;;3.53;;
66972;SDS011;53902;51.466;-2.586;2022-07-29T03:06:12;6.07;;;3.33;;
66972;SDS011;53902;51.466;-2.586;2022-07-29T03:08:41;6.03;;;3.35;;
66972;SDS011;53902;51.466;-2.586;2022-07-29T03:11:10;7.55;;;3.60;;
66972;SDS011;53902;51.466;-2.586;2022-07-29T03:13:36;9.60;;;3.60;;
66972;SDS011;53902;51.466;-2.586;2022-07-29T03:16:02;5.45;;;3.53;;
66972;SDS011;53902;51.466;-2.586;2022-07-29T03:18:31;5.75;;;3.67;;
66972;SDS011;53902;51.466;-2.586;2022-07-29T03:20:57;5.40;;;3.80;;
66972;SDS011;53902;51.466;-2.586;2022-07-29T03:23:23;6.30;;;3.53;;
66972;SDS011;53902;51.466;-2.586;2022-07-29T03:25:51;9.52;;;3.67;;
66972;SDS011;53902;51.466;-2.586;2022-07-29T03:28:19;8.32;;;3.90;;
66972;SDS011;53902;51.466;-2.586;2022-07-29T03:30:45;8.00;;;4.00;;
66972;SDS011;53902;51.466;-2.586;2022-07-29T03:33:11;6.25;;;3.47;;
66972;SDS011;53902;51.466;-2.586;2022-07-29T03:35:39;5.68;;;3.60;;
66972;SDS011;53902;51.466;-2.586;2022-07-29T03:38:04;6.03;;;3.50;;
66972;SDS011;53902;51.466;-2.586;2022-07-29T03:40:33;4.93;;;3.58;;
66972;SDS011;53902;51.466;-2.586;2022-07-29T03:43:03;6.40;;;3.63;;
66972;SDS011;53902;51.466;-2.586;2022-07-29T03:45:30;7.55;;;3.45;;
66972;SDS011;53902;51.466;-2.586;2022-07-29T03:48:07;8.45;;;3.63;;
66972;SDS011;53902;51.466;-2.586;2022-07-29T03:50:35;5.53;;;3.28;;
66972;SDS011;53902;51.466;-2.586;2022-07-29T03:53:00;6.93;;;3.50;;
66972;SDS011;53902;51.466;-2.586;2022-07-29T03:55:29;7.80;;;3.55;;
66972;SDS011;53902;51.466;-2.586;2022-07-29T03:57:58;5.57;;;3.10;;
66972;SDS011;53902;51.466;-2.586;2022-07-29T04:00:25;10.43;;;3.20;;
66972;SDS011;53902;51.466;-2.586;2022-07-29T04:02:50;3.50;;;3.20;;
66972;SDS011;53902;51.466;-2.586;2022-07-29T04:05:16;6.75;;;3.45;;
66972;SDS011;53902;51.466;-2.586;2022-07-29T04:07:48;6.15;;;3.22;;
66972;SDS011;53902;51.466;-2.586;2022-07-29T04:10:16;6.18;;;3.65;;
66972;SDS011;53902;51.466;-2.586;2022-07-29T04:12:50;4.57;;;3.50;;
66972;SDS011;53902;51.466;-2.586;2022-07-29T04:15:16;6.55;;;3.80;;
66972;SDS011;53902;51.466;-2.586;2022-07-29T04:17:41;8.02;;;3.50;;
66972;SDS011;53902;51.466;-2.586;2022-07-29T04:20:07;6.63;;;3.67;;
66972;SDS011;53902;51.466;-2.586;2022-07-29T04:22:33;5.28;;;3.72;;
66972;SDS011;53902;51.466;-2.586;2022-07-29T04:25:02;6.03;;;3.55;;
66972;SDS011;53902;51.466;-2.586;2022-07-29T04:27:27;7.38;;;3.90;;
66972;SDS011;53902;51.466;-2.586;2022-07-29T04:29:53;5.70;;;3.65;;
66972;SDS011;53902;51.466;-2.586;2022-07-29T04:32:21;6.53;;;3.55;;
66972;SDS011;53902;51.466;-2.586;2022-07-29T04:34:47;8.20;;;3.92;;
66972;SDS011;53902;51.466;-2.586;2022-07-29T04:37:12;6.70;;;3.88;;
66972;SDS011;53902;51.466;-2.586;2022-07-29T04:39:38;7.25;;;3.55;;
66972;SDS011;53902;51.466;-2.586;2022-07-29T04:42:03;5.18;;;3.40;;
66972;SDS011;53902;51.466;-2.586;2022-07-29T04:44:29;8.80;;;3.83;;
66972;SDS011;53902;51.466;-2.586;2022-07-29T04:46:57;7.70;;;3.53;;
66972;SDS011;53902;51.466;-2.586;2022-07-29T04:49:22;4.32;;;3.30;;
66972;SDS011;53902;51.466;-2.586;2022-07-29T04:51:48;6.97;;;3.70;;
66972;SDS011;53902;51.466;-2.586;2022-07-29T04:54:13;6.82;;;3.90;;
66972;SDS011;53902;51.466;-2.586;2022-07-29T04:56:39;7.20;;;3.78;;
66972;SDS011;53902;51.466;-2.586;2022-07-29T04:59:04;4.90;;;3.40;;
66972;SDS011;53902;51.466;-2.586;2022-07-29T05:01:30;8.20;;;3.88;;
66972;SDS011;53902;51.466;-2.586;2022-07-29T05:03:55;7.60;;;3.83;;
66972;SDS011;53902;51.466;-2.586;2022-07-29T05:06:21;6.45;;;3.95;;
66972;SDS011;53902;51.466;-2.586;2022-07-29T05:08:46;5.53;;;3.83;;
66972;SDS011;53902;51.466;-2.586;2022-07-29T05:11:11;5.68;;;4.18;;
66972;SDS011;53902;51.466;-2.586;2022-07-29T05:13:37;5.03;;;3.90;;
66972;SDS011;53902;51.466;-2.586;2022-07-29T05:16:05;5.93;;;3.65;;
66972;SDS011;53902;51.466;-2.586;2022-07-29T05:18:33;6.35;;;3.72;;
66972;SDS011;53902;51.466;-2.586;2022-07-29T05:20:58;7.80;;;4.00;;
66972;SDS011;53902;51.466;-2.586;2022-07-29T05:23:24;5.22;;;3.88;;
66972;SDS011;53902;51.466;-2.586;2022-07-29T05:25:49;5.82;;;3.70;;
66972;SDS011;53902;51.466;-2.586;2022-07-29T05:28:15;8.48;;;4.00;;
66972;SDS011;53902;51.466;-2.586;2022-07-29T05:30:40;8.13;;;4.10;;
66972;SDS011;53902;51.466;-2.586;2022-07-29T05:33:11;7.65;;;4.00;;
66972;SDS011;53902;51.466;-2.586;2022-07-29T05:35:37;7.00;;;4.00;;
66972;SDS011;53902;51.466;-2.586;2022-07-29T05:38:02;6.45;;;3.90;;
66972;SDS011;53902;51.466;-2.586;2022-07-29T05:40:31;6.93;;;3.75;;
66972;SDS011;53902;51.466;-2.586;2022-07-29T05:42:57;7.50;;;4.60;;
66972;SDS011;53902;51.466;-2.586;2022-07-29T05:45:22;7.97;;;3.85;;
66972;SDS011;53902;51.466;-2.586;2022-07-29T05:47:49;7.43;;;4.20;;
66972;SDS011;53902;51.466;-2.586;2022-07-29T05:50:14;8.88;;;4.38;;
66972;SDS011;53902;51.466;-2.586;2022-07-29T05:52:40;7.20;;;4.45;;
66972;SDS011;53902;51.466;-2.586;2022-07-29T05:55:05;10.02;;;3.90;;
66972;SDS011;53902;51.466;-2.586;2022-07-29T05:57:31;4.78;;;3.63;;
66972;SDS011;53902;51.466;-2.586;2022-07-29T05:59:57;8.85;;;3.80;;
66972;SDS011;53902;51.466;-2.586;2022-07-29T06:02:22;5.38;;;3.50;;
66972;SDS011;53902;51.466;-2.586;2022-07-29T06:04:47;8.98;;;4.00;;
66972;SDS011;53902;51.466;-2.586;2022-07-29T06:07:14;6.90;;;4.03;;
66972;SDS011;53902;51.466;-2.586;2022-07-29T06:09:39;7.38;;;3.70;;
66972;SDS011;53902;51.466;-2.586;2022-07-29T06:12:05;7.67;;;4.00;;
66972;SDS011;53902;51.466;-2.586;2022-07-29T06:14:30;8.03;;;4.30;;
66972;SDS011;53902;51.466;-2.586;2022-07-29T06:16:56;6.10;;;3.78;;
66972;SDS011;53902;51.466;-2.586;2022-07-29T06:19:24;7.13;;;3.90;;
66972;SDS011;53902;51.466;-2.586;2022-07-29T06:21:53;7.50;;;3.67;;
66972;SDS011;53902;51.466;-2.586;2022-07-29T06:24:29;12.98;;;4.65;;
66972;SDS011;53902;51.466;-2.586;2022-07-29T06:26:54;7.28;;;4.10;;
66972;SDS011;53902;51.466;-2.586;2022-07-29T06:29:19;9.27;;;4.03;;
66972;SDS011;53902;51.466;-2.586;2022-07-29T06:31:48;7.90;;;4.40;;
66972;SDS011;53902;51.466;-2.586;2022-07-29T06:34:13;7.73;;;4.70;;
66972;SDS011;53902;51.466;-2.586;2022-07-29T06:36:41;8.52;;;3.95;;
66972;SDS011;53902;51.466;-2.586;2022-07-29T06:39:07;8.37;;;3.83;;
66972;SDS011;53902;51.466;-2.586;2022-07-29T06:41:33;6.18;;;3.22;;
66972;SDS011;53902;51.466;-2.586;2022-07-29T06:43:58;9.20;;;3.30;;
66972;SDS011;53902;51.466;-2.586;2022-07-29T06:46:24;7.00;;;3.27;;
66972;SDS011;53902;51.466;-2.586;2022-07-29T06:48:50;6.13;;;2.40;;
66972;SDS011;53902;51.466;-2.586;2022-07-29T06:51:15;4.37;;;2.93;;
66972;SDS011;53902;51.466;-2.586;2022-07-29T06:53:41;5.60;;;2.50;;
66972;SDS011;53902;51.466;-2.586;2022-07-29T06:56:09;5.10;;;2.80;;
66972;SDS011;53902;51.466;-2.586;2022-07-29T06:58:35;4.15;;;2.47;;
66972;SDS011;53902;51.466;-2.586;2022-07-29T07:01:01;5.63;;;2.40;;
66972;SDS011;53902;51.466;-2.586;2022-07-29T07:03:28;6.93;;;2.42;;
66972;SDS011;53902;51.466;-2.586;2022-07-29T07:05:54;4.57;;;2.27;;
66972;SDS011;53902;51.466;-2.586;2022-07-29T07:08:20;6.40;;;2.08;;
66972;SDS011;53902;51.466;-2.586;2022-07-29T07:10:46;4.10;;;1.85;;
66972;SDS011;53902;51.466;-2.586;2022-07-29T07:13:14;6.43;;;2.10;;
66972;SDS011;53902;51.466;-2.586;2022-07-29T07:15:42;6.90;;;2.08;;
66972;SDS011;53902;51.466;-2.586;2022-07-29T07:18:10;5.00;;;1.90;;
66972;SDS011;53902;51.466;-2.586;2022-07-29T07:20:36;7.20;;;2.70;;
66972;SDS011;53902;51.466;-2.586;2022-07-29T07:23:09;6.20;;;2.08;;
66972;SDS011;53902;51.466;-2.586;2022-07-29T07:25:35;8.80;;;2.50;;
66972;SDS011;53902;51.466;-2.586;2022-07-29T07:28:00;3.67;;;1.70;;
66972;SDS011;53902;51.466;-2.586;2022-07-29T07:30:26;7.77;;;1.80;;
66972;SDS011;53902;51.466;-2.586;2022-07-29T07:32:52;3.30;;;1.73;;
66972;SDS011;53902;51.466;-2.586;2022-07-29T07:35:18;5.07;;;2.10;;
66972;SDS011;53902;51.466;-2.586;2022-07-29T07:37:45;7.32;;;1.75;;
66972;SDS011;53902;51.466;-2.586;2022-07-29T07:40:11;7.73;;;2.27;;
66972;SDS011;53902;51.466;-2.586;2022-07-29T07:42:37;4.40;;;1.80;;
66972;SDS011;53902;51.466;-2.586;2022-07-29T07:45:08;5.80;;;1.70;;
66972;SDS011;53902;51.466;-2.586;2022-07-29T07:47:34;7.10;;;1.70;;
66972;SDS011;53902;51.466;-2.586;2022-07-29T07:50:01;2.70;;;1.60;;
66972;SDS011;53902;51.466;-2.586;2022-07-29T07:52:26;6.67;;;1.50;;
66972;SDS011;53902;51.466;-2.586;2022-07-29T07:54:52;9.40;;;1.70;;
66972;SDS011;53902;51.466;-2.586;2022-07-29T07:57:17;6.80;;;1.90;;
66972;SDS011;53902;51.466;-2.586;2022-07-29T07:59:43;5.73;;;1.70;;
66972;SDS011;53902;51.466;-2.586;2022-07-29T08:02:09;3.33;;;1.60;;
66972;SDS011;53902;51.466;-2.586;2022-07-29T08:04:34;7.03;;;1.83;;
66972;SDS011;53902;51.466;-2.586;2022-07-29T08:07:00;2.53;;;1.70;;
66972;SDS011;53902;51.466;-2.586;2022-07-29T08:09:27;3.40;;;1.50;;
66972;SDS011;53902;51.466;-2.586;2022-07-29T08:11:53;4.07;;;1.80;;
66972;SDS011;53902;51.466;-2.586;2022-07-29T08:14:18;4.03;;;1.73;;
66972;SDS011;53902;51.466;-2.586;2022-07-29T08:16:44;5.23;;;1.47;;
66972;SDS011;53902;51.466;-2.586;2022-07-29T08:19:10;4.13;;;1.40;;
66972;SDS011;53902;51.466;-2.586;2022-07-29T08:21:36;3.80;;;1.40;;
66972;SDS011;53902;51.466;-2.586;2022-07-29T08:24:01;6.17;;;1.50;;
66972;SDS011;53902;51.466;-2.586;2022-07-29T08:26:46;8.25;;;2.08;;
66972;SDS011;53902;51.466;-2.586;2022-07-29T08:29:11;3.73;;;1.90;;
66972;SDS011;53902;51.466;-2.586;2022-07-29T08:31:37;7.13;;;1.90;;
66972;SDS011;53902;51.466;-2.586;2022-07-29T08:34:03;6.78;;;1.58;;
66972;SDS011;53902;51.466;-2.586;2022-07-29T08:36:29;8.30;;;1.87;;
66972;SDS011;53902;51.466;-2.586;2022-07-29T08:38:57;8.63;;;1.85;;
66972;SDS011;53902;51.466;-2.586;2022-07-29T08:41:23;8.30;;;1.80;;
66972;SDS011;53902;51.466;-2.586;2022-07-29T08:43:48;6.00;;;1.47;;
66972;SDS011;53902;51.466;-2.586;2022-07-29T08:46:15;6.72;;;1.90;;
66972;SDS011;53902;51.466;-2.586;2022-07-29T08:48:41;8.75;;;2.00;;
66972;SDS011;53902;51.466;-2.586;2022-07-29T08:51:07;4.63;;;1.60;;
66972;SDS011;53902;51.466;-2.586;2022-07-29T08:53:33;7.72;;;1.80;;
66972;SDS011;53902;51.466;-2.586;2022-07-29T08:55:59;8.90;;;2.30;;
66972;SDS011;53902;51.466;-2.586;2022-07-29T08:58:25;6.93;;;2.05;;
66972;SDS011;53902;51.466;-2.586;2022-07-29T09:00:54;5.35;;;2.08;;
66972;SDS011;53902;51.466;-2.586;2022-07-29T09:03:22;4.82;;;2.00;;
66972;SDS011;53902;51.466;-2.586;2022-07-29T09:05:49;3.45;;;1.85;;
66972;SDS011;53902;51.466;-2.586;2022-07-29T09:08:16;8.82;;;1.73;;
66972;SDS011;53902;51.466;-2.586;2022-07-29T09:10:42;7.03;;;1.73;;
66972;SDS011;53902;51.466;-2.586;2022-07-29T09:13:08;10.00;;;2.20;;
66972;SDS011;53902;51.466;-2.586;2022-07-29T09:15:36;5.88;;;1.90;;
66972;SDS011;53902;51.466;-2.586;2022-07-29T09:18:01;4.60;;;1.80;;
66972;SDS011;53902;51.466;-2.586;2022-07-29T09:20:27;6.50;;;1.63;;
66972;SDS011;53902;51.466;-2.586;2022-07-29T09:23:13;6.40;;;1.88;;
66972;SDS011;53902;51.466;-2.586;2022-07-29T09:25:39;4.90;;;1.75;;
66972;SDS011;53902;51.466;-2.586;2022-07-29T09:28:13;4.25;;;2.00;;
66972;SDS011;53902;51.466;-2.586;2022-07-29T09:30:54;9.73;;;1.80;;
66972;SDS011;53902;51.466;-2.586;2022-07-29T09:33:24;4.47;;;1.95;;
66972;SDS011;53902;51.466;-2.586;2022-07-29T09:36:03;6.28;;;1.58;;
66972;SDS011;53902;51.466;-2.586;2022-07-29T09:38:30;5.78;;;1.90;;
66972;SDS011;53902;51.466;-2.586;2022-07-29T09:40:59;3.80;;;1.75;;
66972;SDS011;53902;51.466;-2.586;2022-07-29T09:43:28;3.17;;;1.40;;
66972;SDS011;53902;51.466;-2.586;2022-07-29T09:45:54;3.20;;;1.57;;
66972;SDS011;53902;51.466;-2.586;2022-07-29T09:48:25;6.47;;;1.60;;
66972;SDS011;53902;51.466;-2.586;2022-07-29T09:50:50;8.10;;;1.90;;
66972;SDS011;53902;51.466;-2.586;2022-07-29T09:53:36;8.35;;;1.83;;
66972;SDS011;53902;51.466;-2.586;2022-07-29T09:56:03;3.63;;;1.48;;
66972;SDS011;53902;51.466;-2.586;2022-07-29T09:58:32;8.68;;;1.90;;
66972;SDS011;53902;51.466;-2.586;2022-07-29T10:01:01;5.18;;;1.70;;
66972;SDS011;53902;51.466;-2.586;2022-07-29T10:03:29;5.05;;;1.70;;
66972;SDS011;53902;51.466;-2.586;2022-07-29T10:06:10;3.92;;;1.60;;
66972;SDS011;53902;51.466;-2.586;2022-07-29T10:08:38;5.45;;;2.03;;
66972;SDS011;53902;51.466;-2.586;2022-07-29T10:11:14;3.27;;;1.80;;
66972;SDS011;53902;51.466;-2.586;2022-07-29T10:13:48;5.03;;;1.60;;
66972;SDS011;53902;51.466;-2.586;2022-07-29T10:16:14;7.83;;;1.80;;
66972;SDS011;53902;51.466;-2.586;2022-07-29T10:23:35;6.65;;;1.65;;
66972;SDS011;53902;51.466;-2.586;2022-07-29T10:26:02;8.60;;;1.80;;
66972;SDS011;53902;51.466;-2.586;2022-07-29T10:28:31;4.50;;;1.80;;
66972;SDS011;53902;51.466;-2.586;2022-07-29T10:31:04;6.82;;;1.70;;
66972;SDS011;53902;51.466;-2.586;2022-07-29T10:44:41;6.55;;;1.77;;
66972;SDS011;53902;51.466;-2.586;2022-07-29T10:47:08;4.18;;;1.50;;
66972;SDS011;53902;51.466;-2.586;2022-07-29T10:49:54;5.97;;;1.70;;
66972;SDS011;53902;51.466;-2.586;2022-07-29T10:52:23;5.07;;;1.65;;
66972;SDS011;53902;51.466;-2.586;2022-07-29T10:55:06;6.43;;;1.58;;
66972;SDS011;53902;51.466;-2.586;2022-07-29T10:57:34;2.58;;;1.30;;
66972;SDS011;53902;51.466;-2.586;2022-07-29T11:05:11;4.03;;;1.77;;
66972;SDS011;53902;51.466;-2.586;2022-07-29T11:07:39;4.13;;;1.50;;
66972;SDS011;53902;51.466;-2.586;2022-07-29T11:15:13;7.27;;;1.77;;
66972;SDS011;53902;51.466;-2.586;2022-07-29T11:20:33;5.22;;;1.98;;
66972;SDS011;53902;51.466;-2.586;2022-07-29T11:29:18;4.10;;;1.58;;
66972;SDS011;53902;51.466;-2.586;2022-07-29T11:39:31;4.43;;;1.75;;
66972;SDS011;53902;51.466;-2.586;2022-07-29T11:47:37;3.65;;;1.50;;
66972;SDS011;53902;51.466;-2.586;2022-07-29T11:50:08;7.38;;;1.75;;
66972;SDS011;53902;51.466;-2.586;2022-07-29T11:52:36;4.15;;;1.50;;
66972;SDS011;53902;51.466;-2.586;2022-07-29T11:55:11;14.93;;;2.33;;
66972;SDS011;53902;51.466;-2.586;2022-07-29T12:00:24;4.93;;;1.60;;
66972;SDS011;53902;51.466;-2.586;2022-07-29T12:03:06;4.32;;;1.35;;
66972;SDS011;53902;51.466;-2.586;2022-07-29T12:05:37;7.93;;;1.50;;
66972;SDS011;53902;51.466;-2.586;2022-07-29T12:08:08;4.13;;;1.38;;
66972;SDS011;53902;51.466;-2.586;2022-07-29T12:10:34;4.00;;;1.38;;
66972;SDS011;53902;51.466;-2.586;2022-07-29T12:12:59;4.07;;;1.20;;
66972;SDS011;53902;51.466;-2.586;2022-07-29T12:15:32;5.30;;;1.40;;
66972;SDS011;53902;51.466;-2.586;2022-07-29T12:18:10;5.47;;;1.20;;
66972;SDS011;53902;51.466;-2.586;2022-07-29T12:20:37;3.58;;;1.40;;
66972;SDS011;53902;51.466;-2.586;2022-07-29T12:23:06;3.08;;;1.45;;
66972;SDS011;53902;51.466;-2.586;2022-07-29T12:25:33;3.53;;;1.20;;
66972;SDS011;53902;51.466;-2.586;2022-07-29T12:28:03;3.25;;;1.23;;
66972;SDS011;53902;51.466;-2.586;2022-07-29T12:30:37;10.32;;;1.50;;
66972;SDS011;53902;51.466;-2.586;2022-07-29T12:33:14;2.22;;;1.30;;
66972;SDS011;53902;51.466;-2.586;2022-07-29T12:35:51;3.88;;;1.27;;
66972;SDS011;53902;51.466;-2.586;2022-07-29T12:38:21;2.85;;;1.20;;
66972;SDS011;53902;51.466;-2.586;2022-07-29T12:40:47;3.73;;;1.30;;
66972;SDS011;53902;51.466;-2.586;2022-07-29T12:43:17;4.10;;;1.38;;
66972;SDS011;53902;51.466;-2.586;2022-07-29T12:45:44;2.42;;;1.35;;
66972;SDS011;53902;51.466;-2.586;2022-07-29T12:48:11;4.90;;;1.60;;
66972;SDS011;53902;51.466;-2.586;2022-07-29T12:50:51;2.50;;;1.20;;
66972;SDS011;53902;51.466;-2.586;2022-07-29T12:53:24;1.88;;;1.30;;
66972;SDS011;53902;51.466;-2.586;2022-07-29T12:55:51;3.72;;;1.20;;
66972;SDS011;53902;51.466;-2.586;2022-07-29T13:01:03;3.00;;;1.05;;
66972;SDS011;53902;51.466;-2.586;2022-07-29T13:03:41;2.40;;;1.38;;
66972;SDS011;53902;51.466;-2.586;2022-07-29T13:06:07;2.55;;;1.17;;
66972;SDS011;53902;51.466;-2.586;2022-07-29T13:09:09;5.85;;;1.30;;
66972;SDS011;53902;51.466;-2.586;2022-07-29T13:11:37;2.05;;;1.20;;
66972;SDS011;53902;51.466;-2.586;2022-07-29T13:14:04;4.50;;;1.40;;
66972;SDS011;53902;51.466;-2.586;2022-07-29T13:16:30;3.10;;;1.30;;
66972;SDS011;53902;51.466;-2.586;2022-07-29T13:19:04;3.17;;;1.43;;
66972;SDS011;53902;51.466;-2.586;2022-07-29T13:21:34;5.10;;;1.60;;
66972;SDS011;53902;51.466;-2.586;2022-07-29T13:24:04;3.88;;;1.30;;
66972;SDS011;53902;51.466;-2.586;2022-07-29T13:26:31;8.60;;;1.58;;
66972;SDS011;53902;51.466;-2.586;2022-07-29T13:28:59;5.57;;;1.42;;
66972;SDS011;53902;51.466;-2.586;2022-07-29T13:31:27;2.20;;;1.35;;
66972;SDS011;53902;51.466;-2.586;2022-07-29T13:33:52;5.55;;;1.38;;
66972;SDS011;53902;51.466;-2.586;2022-07-29T13:36:18;6.33;;;1.60;;
66972;SDS011;53902;51.466;-2.586;2022-07-29T13:38:43;6.07;;;1.40;;
66972;SDS011;53902;51.466;-2.586;2022-07-29T13:41:09;3.83;;;1.60;;
66972;SDS011;53902;51.466;-2.586;2022-07-29T13:43:39;3.17;;;1.38;;
66972;SDS011;53902;51.466;-2.586;2022-07-29T13:46:04;2.03;;;1.10;;
66972;SDS011;53902;51.466;-2.586;2022-07-29T13:48:30;3.73;;;1.40;;
66972;SDS011;53902;51.466;-2.586;2022-07-29T13:50:56;3.90;;;1.40;;
66972;SDS011;53902;51.466;-2.586;2022-07-29T13:53:21;2.55;;;1.48;;
66972;SDS011;53902;51.466;-2.586;2022-07-29T13:55:47;6.40;;;1.57;;
66972;SDS011;53902;51.466;-2.586;2022-07-29T13:58:12;7.27;;;1.50;;
66972;SDS011;53902;51.466;-2.586;2022-07-29T14:00:40;2.07;;;1.30;;
66972;SDS011;53902;51.466;-2.586;2022-07-29T14:03:05;4.90;;;1.60;;
66972;SDS011;53902;51.466;-2.586;2022-07-29T14:05:31;4.27;;;1.80;;
66972;SDS011;53902;51.466;-2.586;2022-07-29T14:07:56;3.93;;;1.37;;
66972;SDS011;53902;51.466;-2.586;2022-07-29T14:10:22;2.63;;;1.27;;
66972;SDS011;53902;51.466;-2.586;2022-07-29T14:12:50;4.70;;;1.17;;
66972;SDS011;53902;51.466;-2.586;2022-07-29T14:15:15;3.55;;;1.20;;
66972;SDS011;53902;51.466;-2.586;2022-07-29T14:17:40;3.07;;;1.20;;
66972;SDS011;53902;51.466;-2.586;2022-07-29T14:20:06;2.60;;;1.30;;
66972;SDS011;53902;51.466;-2.586;2022-07-29T14:22:32;2.67;;;1.20;;
66972;SDS011;53902;51.466;-2.586;2022-07-29T14:24:58;3.40;;;1.23;;
66972;SDS011;53902;51.466;-2.586;2022-07-29T14:27:23;2.67;;;1.40;;
66972;SDS011;53902;51.466;-2.586;2022-07-29T14:29:49;3.23;;;1.33;;
66972;SDS011;53902;51.466;-2.586;2022-07-29T14:32:17;3.37;;;1.13;;
66972;SDS011;53902;51.466;-2.586;2022-07-29T14:34:42;4.68;;;1.40;;
66972;SDS011;53902;51.466;-2.586;2022-07-29T14:37:07;3.30;;;1.53;;
66972;SDS011;53902;51.466;-2.586;2022-07-29T14:39:34;5.03;;;1.70;;
66972;SDS011;53902;51.466;-2.586;2022-07-29T14:42:00;8.90;;;1.70;;
66972;SDS011;53902;51.466;-2.586;2022-07-29T14:44:26;5.40;;;1.73;;
66972;SDS011;53902;51.466;-2.586;2022-07-29T14:46:55;3.00;;;1.63;;
66972;SDS011;53902;51.466;-2.586;2022-07-29T14:54:16;6.97;;;1.88;;
66972;SDS011;53902;51.466;-2.586;2022-07-29T14:56:41;6.07;;;1.57;;
66972;SDS011;53902;51.466;-2.586;2022-07-29T14:59:07;5.73;;;1.70;;
66972;SDS011;53902;51.466;-2.586;2022-07-29T15:01:32;5.77;;;1.70;;
66972;SDS011;53902;51.466;-2.586;2022-07-29T15:04:00;7.57;;;1.60;;
66972;SDS011;53902;51.466;-2.586;2022-07-29T15:06:25;7.73;;;2.37;;
66972;SDS011;53902;51.466;-2.586;2022-07-29T15:08:51;4.85;;;2.00;;
66972;SDS011;53902;51.466;-2.586;2022-07-29T15:11:17;7.00;;;1.80;;
66972;SDS011;53902;51.466;-2.586;2022-07-29T15:13:44;6.83;;;1.87;;
66972;SDS011;53902;51.466;-2.586;2022-07-29T15:16:10;5.15;;;1.52;;
66972;SDS011;53902;51.466;-2.586;2022-07-29T15:18:35;12.63;;;2.00;;
66972;SDS011;53902;51.466;-2.586;2022-07-29T15:21:03;5.03;;;1.65;;
66972;SDS011;53902;51.466;-2.586;2022-07-29T15:23:29;8.15;;;1.63;;
66972;SDS011;53902;51.466;-2.586;2022-07-29T15:25:54;2.43;;;1.70;;
66972;SDS011;53902;51.466;-2.586;2022-07-29T15:28:19;4.97;;;1.80;;
66972;SDS011;53902;51.466;-2.586;2022-07-29T15:30:45;6.87;;;1.80;;
66972;SDS011;53902;51.466;-2.586;2022-07-29T15:33:10;3.50;;;1.67;;
66972;SDS011;53902;51.466;-2.586;2022-07-29T15:35:36;5.57;;;1.70;;
66972;SDS011;53902;51.466;-2.586;2022-07-29T15:38:02;6.10;;;1.70;;
66972;SDS011;53902;51.466;-2.586;2022-07-29T15:40:30;4.87;;;2.03;;
66972;SDS011;53902;51.466;-2.586;2022-07-29T15:42:58;5.13;;;1.33;;
66972;SDS011;53902;51.466;-2.586;2022-07-29T15:45:34;5.80;;;1.60;;
66972;SDS011;53902;51.466;-2.586;2022-07-29T15:48:04;4.55;;;1.42;;